Time;durP1;ratioP1;P1;durP2;ratioP2;P2;SDS_P1;SDS_P2;PMS_P1;PMS_P2;Temp;Humidity;BMP_temperature;BMP_pressure;BME280_temperature;BME280_humidity;BME280_pressure;Samples;Min_cycle;Max_cycle;Signal;HPM_P1;HPM_P2
2023/01/05 00:00:09;;;;;;;;;;;;;;;8.40;100.00;97915.09;4267097;33;19950;-76
2023/01/05 00:02:58;;;;;;;;;;;;;;;8.50;100.00;97947.34;4260179;33;19981;-75
2023/01/05 00:05:24;;;;;;;;;;;;;;;8.21;100.00;97923.59;4257237;33;19964;-74
2023/01/05 00:07:50;;;;;;;;;;;;;;;8.70;100.00;97915.22;4267690;33;19960;-75
2023/01/05 00:24:01;;;;;;;;;;;;;;;8.46;100.00;97879.22;4280999;33;19945;-74
2023/01/05 00:26:27;;;;;;;;;;;;;;;8.70;100.00;97888.38;4296043;33;19971;-75
2023/01/05 00:28:54;;;;;;;;;;;;;;;8.69;100.00;97883.28;4295855;33;19955;-75
2023/01/05 00:31:20;;;;;;;;;;;;;;;8.71;100.00;97879.28;4295257;33;19961;-75
2023/01/05 00:33:46;;;;;;;;;;;;;;;9.17;100.00;97872.34;4311415;33;19949;-73
2023/01/05 00:36:12;;;;;;;;;;;;;;;8.97;100.00;97876.63;4316173;33;19991;-75
2023/01/05 00:38:39;;;;;;;;;;;;;;;9.14;100.00;97870.19;4312714;33;19959;-74
2023/01/05 00:41:05;;;;;;;;;;;;;;;9.18;100.00;97882.00;4312690;33;19982;-75
2023/01/05 00:43:32;;;;;;;;;;;;;;;9.30;100.00;97877.16;4318467;33;20270;-75
2023/01/05 00:45:58;;;;;;;;;;;;;;;8.89;100.00;97885.22;4325657;33;20005;-73
2023/01/05 00:48:24;;;;;;;;;;;;;;;9.25;100.00;97863.72;4319797;33;19956;-74
2023/01/05 00:50:50;;;;;;;;;;;;;;;9.21;100.00;97897.59;4312235;33;19963;-75
2023/01/05 00:53:29;;;;;;;;;;;;;;;8.98;100.00;97859.44;4311244;33;19998;-75
2023/01/05 00:55:55;;;;;;;;;;;;;;;8.96;100.00;97869.63;4321737;33;20023;-74
2023/01/05 00:58:22;;;;;;;;;;;;;;;9.02;100.00;97847.09;4320904;33;19974;-75
2023/01/05 03:00:56;;;;;;;;;;;;;;;8.59;100.00;97733.81;4838870;27;19945;-74
2023/01/05 03:03:34;;;;;;;;;;;;;;;8.94;100.00;97761.72;4308312;33;20274;-75
2023/01/05 03:06:05;;;;;;;;;;;;;;;8.85;100.00;97741.88;4308406;33;19945;-76
2023/01/05 03:08:34;;;;;;;;;;;;;;;9.29;100.00;97727.81;4310860;33;20041;-76
2023/01/05 03:13:56;;;;;;;;;;;;;;;9.05;100.00;97744.53;4311099;33;19974;-75
2023/01/05 03:16:28;;;;;;;;;;;;;;;9.34;100.00;97730.50;4310905;33;19962;-75
2023/01/05 03:35:40;;;;;;;;;;;;;;;9.22;100.00;97716.56;4267632;33;20076;-75
2023/01/05 03:38:25;;;;;;;;;;;;;;;8.45;100.00;97698.66;4265364;33;20320;-76
2023/01/05 03:40:54;;;;;;;;;;;;;;;8.64;100.00;97728.44;4265049;33;20309;-75
2023/01/05 03:43:21;;;;;;;;;;;;;;;8.88;100.00;97727.91;4253960;33;20316;-74
2023/01/05 03:45:55;;;;;;;;;;;;;;;8.64;100.00;97717.72;4278891;33;20004;-75
2023/01/05 03:48:24;;;;;;;;;;;;;;;8.73;100.00;97726.03;4278338;33;19944;-76
2023/01/05 03:50:50;;;;;;;;;;;;;;;8.91;100.00;97727.38;4305689;33;19952;-75
2023/01/05 03:53:17;;;;;;;;;;;;;;;8.50;100.00;97722.00;4309564;33;19962;-74
2023/01/05 03:55:44;;;;;;;;;;;;;;;8.94;100.00;97721.44;4310650;33;20052;-75
2023/01/05 03:58:10;;;;;;;;;;;;;;;8.87;100.00;97737.03;4305326;33;19949;-75
2023/01/05 04:00:40;;;;;;;;;;;;;;;8.93;100.00;97709.09;4309599;33;19958;-75
2023/01/05 04:03:09;;;;;;;;;;;;;;;8.86;100.00;97730.06;4310470;33;20096;-75
2023/01/05 04:05:35;;;;;;;;;;;;;;;8.75;100.00;97712.34;4290808;33;19941;-74
2023/01/05 04:08:03;;;;;;;;;;;;;;;9.19;100.00;97712.53;4297352;33;20332;-75
2023/01/05 04:10:29;;;;;;;;;;;;;;;9.01;100.00;97719.28;4296886;33;20290;-75
2023/01/05 04:12:57;;;;;;;;;;;;;;;8.95;100.00;97717.69;4297197;33;20000;-75
2023/01/05 04:15:24;;;;;;;;;;;;;;;8.87;100.00;97704.81;4296660;33;19945;-74
2023/01/05 04:17:51;;;;;;;;;;;;;;;9.14;100.00;97719.81;4293593;33;19976;-75
2023/01/05 04:20:17;;;;;;;;;;;;;;;8.89;100.00;97711.53;4278018;33;19963;-75
2023/01/05 04:22:44;;;;;;;;;;;;;;;9.22;100.00;97705.81;4282644;33;19941;-75
2023/01/05 04:25:11;;;;;;;;;;;;;;;9.14;100.00;97711.75;4275103;33;19945;-75
2023/01/05 04:27:38;;;;;;;;;;;;;;;8.94;100.00;97716.09;4266554;33;19938;-74
2023/01/05 04:30:05;;;;;;;;;;;;;;;9.21;100.00;97714.97;4224164;33;20058;-75
2023/01/05 04:32:32;;;;;;;;;;;;;;;9.30;100.00;97702.56;4225651;33;19943;-75
2023/01/05 04:34:59;;;;;;;;;;;;;;;8.89;100.00;97708.06;4224530;33;20058;-74
2023/01/05 04:37:25;;;;;;;;;;;;;;;8.86;100.00;97730.84;4237267;33;20066;-74
2023/01/05 04:39:52;;;;;;;;;;;;;;;9.23;100.00;97718.97;4238375;33;19946;-74
2023/01/05 04:42:18;;;;;;;;;;;;;;;9.29;100.00;97727.81;4238148;33;19986;-75
2023/01/05 04:44:45;;;;;;;;;;;;;;;9.27;100.00;97740.72;4239275;33;20355;-74
2023/01/05 04:47:18;;;;;;;;;;;;;;;9.22;100.00;97736.19;4237261;33;19999;-75
2023/01/05 04:49:44;;;;;;;;;;;;;;;9.32;100.00;97747.94;4237482;33;19968;-75
2023/01/05 04:52:11;;;;;;;;;;;;;;;9.26;100.00;97736.44;4259436;33;19942;-74
2023/01/05 04:54:37;;;;;;;;;;;;;;;9.22;100.00;97754.16;4267587;33;19961;-75
2023/01/05 04:57:04;;;;;;;;;;;;;;;8.81;100.00;97743.50;4267558;33;19949;-75
2023/01/05 04:59:30;;;;;;;;;;;;;;;9.14;100.00;97741.28;4267386;33;19965;-75
2023/01/05 05:02:00;;;;;;;;;;;;;;;9.27;100.00;97740.72;4252337;33;19987;-75
2023/01/05 05:04:28;;;;;;;;;;;;;;;9.05;100.00;97736.47;4250180;33;19999;-75
2023/01/05 05:06:54;;;;;;;;;;;;;;;9.01;100.00;97732.69;4259771;33;19971;-75
2023/01/05 05:09:22;;;;;;;;;;;;;;;9.20;100.00;97726.78;4281971;33;19949;-75
2023/01/05 05:11:48;;;;;;;;;;;;;;;9.31;100.00;97731.03;4292231;33;19998;-73
2023/01/05 05:14:15;;;;;;;;;;;;;;;9.06;100.00;97729.22;4294878;33;19959;-74
2023/01/05 05:16:42;;;;;;;;;;;;;;;8.72;100.00;97730.59;4295917;33;19967;-75
2023/01/05 05:19:09;;;;;;;;;;;;;;;8.88;100.00;97727.91;4296182;33;19949;-74
2023/01/05 05:21:35;;;;;;;;;;;;;;;8.82;100.00;97729.81;4295283;33;19959;-75
2023/01/05 05:24:03;;;;;;;;;;;;;;;8.85;100.00;97734.59;4296127;33;20335;-74
2023/01/05 05:26:29;;;;;;;;;;;;;;;8.94;100.00;97716.09;4294213;33;19948;-74
2023/01/05 05:28:56;;;;;;;;;;;;;;;8.90;100.00;97731.13;4296003;33;19988;-74
2023/01/05 05:31:23;;;;;;;;;;;;;;;8.98;100.00;97730.56;4295678;33;20278;-74
2023/01/05 05:33:49;;;;;;;;;;;;;;;9.21;100.00;97731.06;4296189;33;20296;-75
2023/01/05 05:36:16;;;;;;;;;;;;;;;8.75;100.00;97739.19;4294567;33;20377;-74
2023/01/05 05:38:43;;;;;;;;;;;;;;;8.62;100.00;97719.06;4296590;33;20270;-74
2023/01/05 05:41:09;;;;;;;;;;;;;;;9.05;100.00;97733.78;4309213;33;20031;-74
2023/01/05 05:43:35;;;;;;;;;;;;;;;9.00;100.00;97728.44;4310320;33;19941;-74
2023/01/05 05:46:02;;;;;;;;;;;;;;;9.29;100.00;97725.16;4309835;33;20380;-74
2023/01/05 05:48:28;;;;;;;;;;;;;;;9.54;100.00;97723.44;4312049;33;19991;-74
2023/01/05 05:50:54;;;;;;;;;;;;;;;8.73;100.00;97731.41;4308939;33;20007;-74
2023/01/05 05:53:21;;;;;;;;;;;;;;;8.85;100.00;97771.38;4312278;33;19964;-74
2023/01/05 05:55:48;;;;;;;;;;;;;;;9.24;100.00;97746.66;4311900;33;19956;-74
2023/01/05 05:58:16;;;;;;;;;;;;;;;9.37;100.00;97746.06;4266694;33;19952;-74
2023/01/05 06:00:42;;;;;;;;;;;;;;;9.48;100.00;97740.66;4263949;33;19967;-74
2023/01/05 06:03:09;;;;;;;;;;;;;;;9.47;100.00;97741.75;4257018;33;20007;-73
2023/01/05 06:05:35;;;;;;;;;;;;;;;9.17;100.00;97738.84;4251739;33;19970;-75
2023/01/05 06:08:01;;;;;;;;;;;;;;;9.22;100.00;97754.16;4252721;33;20351;-74
2023/01/05 06:10:27;;;;;;;;;;;;;;;8.92;100.00;97742.41;4252551;33;19963;-75
2023/01/05 06:12:54;;;;;;;;;;;;;;;8.76;100.00;97740.78;4237133;33;20009;-75
2023/01/05 06:15:21;;;;;;;;;;;;;;;8.61;100.00;97750.44;4237664;33;20270;-74
2023/01/05 06:17:47;;;;;;;;;;;;;;;8.66;100.00;97774.63;4238394;33;20006;-74
2023/01/05 06:20:15;;;;;;;;;;;;;;;8.91;100.00;97756.88;4251235;33;19956;-73
2023/01/05 06:22:42;;;;;;;;;;;;;;;8.89;100.00;97724.16;4257007;33;19941;-74
2023/01/05 06:25:08;;;;;;;;;;;;;;;8.82;100.00;97766.56;4264272;33;20451;-74
2023/01/05 06:27:35;;;;;;;;;;;;;;;8.52;100.00;97765.47;4266662;33;19971;-74
2023/01/05 06:30:01;;;;;;;;;;;;;;;8.83;100.00;97757.44;4252720;33;19961;-73
2023/01/05 06:32:28;;;;;;;;;;;;;;;8.61;100.00;97760.37;4252212;33;19949;-76
2023/01/05 06:34:54;;;;;;;;;;;;;;;9.16;100.00;97745.31;4269673;33;19956;-74
2023/01/05 06:37:20;;;;;;;;;;;;;;;8.88;100.00;97738.63;4309252;33;20282;-74
2023/01/05 06:39:46;;;;;;;;;;;;;;;9.00;100.00;97747.22;4278170;33;19949;-74
2023/01/05 06:42:13;;;;;;;;;;;;;;;9.15;100.00;97742.91;4280108;33;20373;-74
2023/01/05 06:44:38;;;;;;;;;;;;;;;8.93;100.00;97741.31;4261036;33;20036;-74
2023/01/05 06:47:05;;;;;;;;;;;;;;;8.65;100.00;97756.09;4261708;33;20073;-74
2023/01/05 06:49:31;;;;;;;;;;;;;;;9.08;100.00;97733.25;4262161;33;19964;-73
2023/01/05 06:51:57;;;;;;;;;;;;;;;9.11;100.00;97745.34;4250902;33;20020;-72
2023/01/05 06:54:24;;;;;;;;;;;;;;;9.14;100.00;97762.75;4246959;33;20000;-72
2023/01/05 06:56:50;;;;;;;;;;;;;;;8.88;100.00;97766.28;4251037;33;20424;-74
2023/01/05 06:59:16;;;;;;;;;;;;;;;8.61;100.00;97745.09;4249329;33;19962;-74
2023/01/05 07:01:42;;;;;;;;;;;;;;;8.92;100.00;97758.50;4246886;33;19953;-76
2023/01/05 07:04:08;;;;;;;;;;;;;;;8.82;100.00;97766.56;4250488;33;20452;-75
2023/01/05 07:06:35;;;;;;;;;;;;;;;8.86;100.00;97763.06;4247597;33;19946;-74
2023/01/05 07:09:01;;;;;;;;;;;;;;;9.27;100.00;97763.00;4208978;34;19950;-76
2023/01/05 07:11:27;;;;;;;;;;;;;;;8.84;100.00;97785.88;4216801;33;20006;-75
2023/01/05 07:13:53;;;;;;;;;;;;;;;8.93;100.00;97751.25;4219755;34;19959;-73
2023/01/05 07:16:20;;;;;;;;;;;;;;;8.69;100.00;97787.47;4220925;34;19947;-74
2023/01/05 07:18:46;;;;;;;;;;;;;;;8.94;100.00;97759.03;4221741;34;19975;-73
2023/01/05 07:21:12;;;;;;;;;;;;;;;8.60;100.00;97767.63;4221363;34;20383;-75
2023/01/05 07:23:38;;;;;;;;;;;;;;;9.13;100.00;97782.66;4232546;33;19974;-74
2023/01/05 07:26:05;;;;;;;;;;;;;;;8.95;100.00;97776.78;4215190;34;20414;-73
2023/01/05 07:28:32;;;;;;;;;;;;;;;8.84;100.00;97791.25;4209449;34;19947;-73
2023/01/05 07:30:58;;;;;;;;;;;;;;;9.14;100.00;97768.13;4211269;34;19982;-75
2023/01/05 07:33:24;;;;;;;;;;;;;;;8.96;100.00;97770.31;4215293;34;19979;-74
2023/01/05 07:35:50;;;;;;;;;;;;;;;8.85;100.00;97787.50;4209682;34;19965;-73
2023/01/05 07:38:17;;;;;;;;;;;;;;;8.84;100.00;97765.22;4229436;33;19985;-74
2023/01/05 07:40:43;;;;;;;;;;;;;;;8.96;100.00;97783.72;4268784;33;19967;-75
2023/01/05 07:43:09;;;;;;;;;;;;;;;8.95;100.00;97766.03;4280753;33;19992;-74
2023/01/05 07:45:36;;;;;;;;;;;;;;;9.01;100.00;97770.28;4277872;33;19964;-74
2023/01/05 07:48:02;;;;;;;;;;;;;;;9.42;100.00;97759.47;4272711;33;19996;-75
2023/01/05 07:50:28;;;;;;;;;;;;;;;9.27;100.00;97772.97;4277421;33;19996;-75
2023/01/05 07:52:57;;;;;;;;;;;;;;;9.23;100.00;97798.75;4278921;33;19961;-74
2023/01/05 07:55:23;;;;;;;;;;;;;;;9.19;100.00;97782.37;4278619;33;19971;-73
2023/01/05 07:57:49;;;;;;;;;;;;;;;8.99;100.00;97831.50;4289331;33;20402;-73
2023/01/05 08:00:15;;;;;;;;;;;;;;;9.37;100.00;97782.87;4280209;33;19957;-73
2023/01/05 08:02:42;;;;;;;;;;;;;;;9.15;100.00;97777.81;4280362;33;19991;-74
2023/01/05 08:05:09;;;;;;;;;;;;;;;9.51;100.00;97788.47;4278107;33;20031;-73
2023/01/05 08:07:35;;;;;;;;;;;;;;;9.45;100.00;97769.69;4277039;33;20423;-74
2023/01/05 08:15:32;;;;;;;;;;;;;;;9.56;100.00;97783.09;4282612;33;19963;-73
2023/01/05 08:17:58;;;;;;;;;;;;;;;9.20;100.00;97807.34;4281019;33;19937;-73
2023/01/05 08:20:24;;;;;;;;;;;;;;;9.29;100.00;97792.28;4280666;33;19952;-73
2023/01/05 08:22:51;;;;;;;;;;;;;;;9.23;100.00;97801.44;4282108;33;20000;-74
2023/01/05 08:25:18;;;;;;;;;;;;;;;9.52;100.00;97819.66;4280394;33;19949;-73
2023/01/05 08:27:45;;;;;;;;;;;;;;;9.59;100.00;97809.44;4268088;33;19953;-73
2023/01/05 08:30:12;;;;;;;;;;;;;;;9.39;100.00;97803.00;4269038;33;19942;-76
2023/01/05 08:32:38;;;;;;;;;;;;;;;9.37;100.00;97799.78;4296927;33;20268;-73
2023/01/05 08:35:05;;;;;;;;;;;;;;;9.61;100.00;97796.53;4296302;33;19959;-75
2023/01/05 08:37:31;;;;;;;;;;;;;;;9.56;100.00;97818.84;4292933;33;19992;-75
2023/01/05 08:39:57;;;;;;;;;;;;;;;9.62;100.00;97795.41;4295990;33;19967;-75
2023/01/05 08:42:23;;;;;;;;;;;;;;;9.60;100.00;97809.12;4296460;33;19968;-76
2023/01/05 08:44:50;;;;;;;;;;;;;;;9.23;100.00;97810.28;4296398;33;19940;-74
2023/01/05 08:47:16;;;;;;;;;;;;;;;9.42;100.00;97802.47;4296222;33;20069;-76
2023/01/05 08:49:42;;;;;;;;;;;;;;;9.37;100.00;97799.78;4295032;33;19953;-75
2023/01/05 08:52:08;;;;;;;;;;;;;;;9.43;100.00;97814.84;4290459;33;20084;-75
2023/01/05 08:54:35;;;;;;;;;;;;;;;9.11;100.00;97808.97;4282158;33;20886;-76
2023/01/05 08:57:00;;;;;;;;;;;;;;;9.47;100.00;97814.28;4281865;33;19944;-75
2023/01/05 08:59:27;;;;;;;;;;;;;;;9.34;100.00;97827.19;4294441;33;20324;-75
2023/01/05 09:01:53;;;;;;;;;;;;;;;9.32;100.00;97813.25;4265039;33;20000;-76
2023/01/05 09:04:19;;;;;;;;;;;;;;;9.37;100.00;97829.34;4266527;33;19972;-76
2023/01/05 09:06:46;;;;;;;;;;;;;;;9.21;100.00;97822.38;4267243;33;20312;-76
2023/01/05 09:09:12;;;;;;;;;;;;;;;9.36;100.00;97827.72;4267492;33;19945;-75
2023/01/05 09:11:38;;;;;;;;;;;;;;;9.24;100.00;97833.38;4267484;33;19941;-76
2023/01/05 09:14:04;;;;;;;;;;;;;;;9.53;100.00;97845.44;4265372;33;19953;-75
2023/01/05 09:16:32;;;;;;;;;;;;;;;9.66;100.00;97839.50;4267166;33;19960;-77
2023/01/05 09:19:01;;;;;;;;;;;;;;;9.47;100.00;97833.09;4268908;33;19979;-76
2023/01/05 09:21:28;;;;;;;;;;;;;;;9.49;100.00;97822.88;4281132;33;19957;-75
2023/01/05 09:23:54;;;;;;;;;;;;;;;9.42;100.00;97823.97;4281560;33;19963;-75
2023/01/05 09:26:20;;;;;;;;;;;;;;;9.64;100.00;97822.84;4279450;33;20275;-76
2023/01/05 09:28:47;;;;;;;;;;;;;;;9.66;100.00;97812.63;4276511;33;19958;-76
2023/01/05 09:31:17;;;;;;;;;;;;;;;9.69;100.00;97827.41;4263552;33;20296;-76
2023/01/05 09:33:44;;;;;;;;;;;;;;;9.75;100.00;97827.13;4282196;33;19960;-75
2023/01/05 09:36:12;;;;;;;;;;;;;;;9.56;100.00;97818.03;4304344;33;20076;-75
2023/01/05 09:38:39;;;;;;;;;;;;;;;9.65;100.00;97821.75;4311549;33;19979;-75
2023/01/05 09:41:14;;;;;;;;;;;;;;;9.47;100.00;97825.03;4312523;33;19994;-75
2023/01/05 09:43:43;;;;;;;;;;;;;;;9.46;100.00;97856.44;4281790;33;19941;-74
2023/01/05 09:46:12;;;;;;;;;;;;;;;9.61;100.00;97828.78;4263305;33;19985;-74
2023/01/05 09:48:40;;;;;;;;;;;;;;;9.67;100.00;97835.75;4266706;33;19965;-75
2023/01/05 09:51:07;;;;;;;;;;;;;;;9.54;100.00;97847.88;4266503;33;19934;-75
2023/01/05 09:53:34;;;;;;;;;;;;;;;9.57;100.00;97847.31;4265500;33;19949;-74
2023/01/05 09:56:01;;;;;;;;;;;;;;;9.60;100.00;97819.09;4235223;33;19956;-75
2023/01/05 09:58:30;;;;;;;;;;;;;;;9.71;100.00;97820.66;4238433;33;19981;-75
2023/01/05 10:01:06;;;;;;;;;;;;;;;9.66;100.00;97818.00;4210052;34;19947;-75
2023/01/05 10:03:36;;;;;;;;;;;;;;;9.64;100.00;97822.84;4210698;34;19957;-75
2023/01/05 10:06:02;;;;;;;;;;;;;;;9.34;100.00;97829.88;4207690;34;20292;-76
2023/01/05 10:08:35;;;;;;;;;;;;;;;9.31;100.00;97826.94;4210040;34;19969;-76
2023/01/05 10:14:07;;;;;;;;;;;;;;;9.61;100.00;97821.50;4212737;34;19950;-75
2023/01/05 10:16:33;;;;;;;;;;;;;;;9.69;100.00;97811.28;4230442;33;19934;-75
2023/01/05 10:19:00;;;;;;;;;;;;;;;9.69;100.00;97825.50;4252702;33;19975;-75
2023/01/05 10:21:45;;;;;;;;;;;;;;;9.72;100.00;97827.66;4250313;33;19942;-75
2023/01/05 10:24:22;;;;;;;;;;;;;;;9.72;100.00;97811.53;4252436;33;19960;-74
2023/01/05 10:26:48;;;;;;;;;;;;;;;9.31;100.00;97811.63;4234544;33;19984;-75
2023/01/05 10:29:17;;;;;;;;;;;;;;;9.60;100.00;97802.97;4250627;33;19950;-75
2023/01/05 10:31:44;;;;;;;;;;;;;;;9.79;100.00;97812.03;4227977;33;20317;-75
2023/01/05 10:34:20;;;;;;;;;;;;;;;9.43;100.00;97822.88;4224360;34;19980;-75
2023/01/05 10:36:46;;;;;;;;;;;;;;;9.32;100.00;97823.16;4223533;34;19950;-75
2023/01/05 10:39:45;;;;;;;;;;;;;;;9.34;100.00;97821.81;4242619;33;19942;-74
2023/01/05 10:42:24;;;;;;;;;;;;;;;9.23;100.00;97825.59;4220631;33;20077;-74
2023/01/05 10:44:54;;;;;;;;;;;;;;;9.22;100.00;97819.44;4249927;33;19950;-75
2023/01/05 10:47:21;;;;;;;;;;;;;;;9.34;100.00;97821.81;4252351;33;19945;-74
2023/01/05 10:49:48;;;;;;;;;;;;;;;9.22;100.00;97830.19;4251592;33;20407;-74
2023/01/05 10:52:15;;;;;;;;;;;;;;;9.36;100.00;97830.41;4252381;33;19950;-75
2023/01/05 10:54:57;;;;;;;;;;;;;;;9.50;100.00;97813.75;4233184;33;19980;-74
2023/01/05 10:57:30;;;;;;;;;;;;;;;9.23;100.00;97837.13;4236345;33;19938;-74
2023/01/05 10:59:56;;;;;;;;;;;;;;;9.51;100.00;97831.47;4252369;33;19954;-74
2023/01/05 11:02:24;;;;;;;;;;;;;;;9.31;100.00;97857.28;4259964;33;19955;-74
2023/01/05 11:04:51;;;;;;;;;;;;;;;9.48;100.00;97891.13;4289437;33;19957;-74
2023/01/05 11:07:17;;;;;;;;;;;;;;;9.50;100.00;97824.50;4294839;33;20392;-74
2023/01/05 11:09:45;;;;;;;;;;;;;;;9.47;100.00;97819.66;4294307;33;20311;-73
2023/01/05 11:12:17;;;;;;;;;;;;;;;9.71;100.00;97809.91;4294416;33;19953;-75
2023/01/05 11:14:46;;;;;;;;;;;;;;;10.05;100.00;97814.66;4290819;33;20335;-75
2023/01/05 11:17:16;;;;;;;;;;;;;;;10.01;100.00;97829.72;4297959;33;20611;-76
2023/01/05 11:19:44;;;;;;;;;;;;;;;9.73;100.00;97850.78;4296411;33;19971;-74
2023/01/05 11:22:32;;;;;;;;;;;;;;;9.85;100.00;97838.91;4297536;33;19955;-74
2023/01/05 11:25:11;;;;;;;;;;;;;;;9.88;100.00;97819.56;4298255;33;19940;-74
2023/01/05 11:27:37;;;;;;;;;;;;;;;9.97;100.00;97817.88;4283289;33;19945;-75
2023/01/05 11:30:17;;;;;;;;;;;;;;;9.91;100.00;97829.75;4282542;33;19944;-74
2023/01/05 11:32:44;;;;;;;;;;;;;;;9.96;100.00;97843.97;4267280;33;20061;-75
2023/01/05 11:35:26;;;;;;;;;;;;;;;9.29;100.00;97821.84;4268151;33;20024;-75
2023/01/05 11:37:52;;;;;;;;;;;;;;;9.64;100.00;97836.28;4266927;33;19969;-75
2023/01/05 11:40:21;;;;;;;;;;;;;;;9.55;100.00;97827.97;4268603;33;20258;-75
2023/01/05 11:42:47;;;;;;;;;;;;;;;9.65;100.00;97832.50;4269028;33;20295;-75
2023/01/05 11:45:21;;;;;;;;;;;;;;;9.64;100.00;97844.34;4280909;33;19969;-75
2023/01/05 11:47:50;;;;;;;;;;;;;;;9.60;100.00;97851.34;4281014;33;19946;-75
2023/01/05 11:50:27;;;;;;;;;;;;;;;9.57;100.00;97846.50;4281932;33;19949;-74
2023/01/05 11:52:57;;;;;;;;;;;;;;;9.27;100.00;97858.91;4282651;33;19955;-74
2023/01/05 11:55:37;;;;;;;;;;;;;;;9.25;100.00;97855.69;4281465;33;20001;-74
2023/01/05 11:58:12;;;;;;;;;;;;;;;9.23;100.00;97847.09;4285554;33;19956;-76
2023/01/05 12:03:38;;;;;;;;;;;;;;;9.14;100.00;97848.69;4283406;33;19965;-76
2023/01/05 12:06:21;;;;;;;;;;;;;;;9.09;100.00;97846.81;4297019;33;19945;-76
2023/01/05 12:08:47;;;;;;;;;;;;;;;8.93;100.00;97864.78;4297554;33;19964;-76
2023/01/05 12:11:18;;;;;;;;;;;;;;;9.14;100.00;97838.75;4296967;33;19982;-76
2023/01/05 12:14:03;;;;;;;;;;;;;;;8.95;100.00;97854.63;4299400;33;19956;-76
2023/01/05 12:16:35;;;;;;;;;;;;;;;8.96;100.00;97853.53;4299075;33;19988;-76
2023/01/05 12:19:10;;;;;;;;;;;;;;;9.07;100.00;97849.78;4297296;33;19949;-75
2023/01/05 12:21:40;;;;;;;;;;;;;;;9.24;100.00;97864.81;4298562;33;20252;-76
2023/01/05 12:24:12;;;;;;;;;;;;;;;9.27;100.00;97853.53;4299239;33;19945;-76
2023/01/05 12:26:39;;;;;;;;;;;;;;;9.16;100.00;97851.91;4296699;33;20396;-75
2023/01/05 12:29:26;;;;;;;;;;;;;;;9.08;100.00;97850.59;4298189;33;19949;-76
2023/01/05 12:32:10;;;;;;;;;;;;;;;8.88;100.00;97848.69;4298528;33;19945;-76
2023/01/05 12:34:51;;;;;;;;;;;;;;;9.07;100.00;97836.34;4297432;33;19964;-76
2023/01/05 12:37:20;;;;;;;;;;;;;;;8.92;100.00;97836.37;4298882;33;19959;-76
2023/01/05 12:39:47;;;;;;;;;;;;;;;9.03;100.00;97843.34;4299161;33;20283;-76
2023/01/05 12:42:15;;;;;;;;;;;;;;;9.31;100.00;97862.66;4297577;33;19959;-76
2023/01/05 12:44:54;;;;;;;;;;;;;;;9.14;100.00;97854.06;4298040;33;19961;-77
2023/01/05 12:47:39;;;;;;;;;;;;;;;8.93;100.00;97915.81;4298435;33;20301;-76
2023/01/05 12:50:18;;;;;;;;;;;;;;;8.97;100.00;97841.72;4296428;33;19940;-75
2023/01/05 12:52:47;;;;;;;;;;;;;;;8.65;100.00;97837.41;4298991;33;19959;-76
2023/01/05 12:55:22;;;;;;;;;;;;;;;8.81;100.00;97872.31;4298718;33;19949;-77
2023/01/05 12:57:56;;;;;;;;;;;;;;;8.97;100.00;97833.66;4297831;33;20125;-75
2023/01/05 13:00:24;;;;;;;;;;;;;;;8.85;100.00;97858.06;4298562;33;19957;-76
2023/01/05 13:02:54;;;;;;;;;;;;;;;8.72;100.00;97859.41;4298525;33;19975;-77
2023/01/05 13:05:58;;;;;;;;;;;;;;;8.49;100.00;97870.66;4296786;33;20243;-76
2023/01/05 13:08:24;;;;;;;;;;;;;;;8.67;100.00;97850.56;4296634;33;19951;-76
2023/01/05 13:10:50;;;;;;;;;;;;;;;8.89;100.00;97853.00;4252941;33;20312;-76
2023/01/05 13:13:20;;;;;;;;;;;;;;;8.99;100.00;97858.38;4252985;33;19946;-75
2023/01/05 13:15:49;;;;;;;;;;;;;;;9.12;100.00;97858.91;4252919;33;20248;-77
2023/01/05 13:18:17;;;;;;;;;;;;;;;8.83;100.00;97870.97;4252693;33;19952;-76
2023/01/05 13:20:54;;;;;;;;;;;;;;;8.76;100.00;97869.59;4252931;33;19950;-75
2023/01/05 13:23:24;;;;;;;;;;;;;;;8.75;100.00;97873.38;4249734;33;19947;-74
2023/01/05 13:25:54;;;;;;;;;;;;;;;8.79;100.00;97871.75;4253520;33;20007;-75
2023/01/05 13:28:22;;;;;;;;;;;;;;;8.81;100.00;97873.13;4253302;33;19957;-77
2023/01/05 13:31:00;;;;;;;;;;;;;;;8.58;100.00;97900.44;4253268;33;20012;-77
2023/01/05 13:33:49;;;;;;;;;;;;;;;8.39;100.00;97886.66;4251519;33;19950;-77
2023/01/05 13:36:27;;;;;;;;;;;;;;;8.52;100.00;97880.81;4253051;33;20055;-77
2023/01/05 13:39:12;;;;;;;;;;;;;;;8.30;100.00;97884.50;4251743;33;19937;-77
2023/01/05 13:41:57;;;;;;;;;;;;;;;8.34;100.00;97869.50;4263558;33;20403;-77
2023/01/05 13:44:39;;;;;;;;;;;;;;;8.00;100.00;97880.59;4278777;33;19945;-76
2023/01/05 13:47:16;;;;;;;;;;;;;;;8.15;100.00;97871.03;4291014;33;19953;-77
2023/01/05 13:49:55;;;;;;;;;;;;;;;8.08;100.00;97908.00;4297828;33;19961;-77
2023/01/05 13:52:29;;;;;;;;;;;;;;;8.12;100.00;97882.25;4298057;33;19952;-77
2023/01/05 13:55:00;;;;;;;;;;;;;;;7.93;100.00;97874.69;4295255;33;19973;-77
2023/01/05 13:57:27;;;;;;;;;;;;;;;7.74;100.00;97897.63;4282404;33;19941;-77
2023/01/05 13:59:57;;;;;;;;;;;;;;;7.88;100.00;97897.97;4280076;33;19941;-77
2023/01/05 14:02:26;;;;;;;;;;;;;;;7.62;100.00;97898.63;4279928;33;20100;-76
2023/01/05 14:04:53;;;;;;;;;;;;;;;7.79;100.00;97905.69;4250385;33;20016;-76
2023/01/05 14:07:19;;;;;;;;;;;;;;;7.64;100.00;97891.16;4251800;33;19985;-76
2023/01/05 14:09:47;;;;;;;;;;;;;;;7.74;100.00;97917.19;4250069;33;20105;-75
2023/01/05 14:12:14;;;;;;;;;;;;;;;7.34;100.00;97926.56;4248323;33;20097;-76
2023/01/05 14:15:08;;;;;;;;;;;;;;;7.75;100.00;97891.19;4249063;33;19969;-76
2023/01/05 14:17:50;;;;;;;;;;;;;;;7.69;100.00;97922.53;4244228;33;19950;-76
2023/01/05 14:20:30;;;;;;;;;;;;;;;7.53;100.00;97905.53;4244636;33;19987;-76
2023/01/05 14:23:20;;;;;;;;;;;;;;;7.40;100.00;97935.41;4234530;33;20046;-75
2023/01/05 14:25:51;;;;;;;;;;;;;;;7.53;100.00;97926.97;4234094;33;19954;-76
2023/01/05 14:28:27;;;;;;;;;;;;;;;7.73;100.00;97912.09;4238479;33;19960;-76
2023/01/05 14:31:15;;;;;;;;;;;;;;;7.68;100.00;97936.19;4237643;33;19952;-76
2023/01/05 14:34:06;;;;;;;;;;;;;;;7.38;100.00;97916.12;4249820;33;19950;-76
2023/01/05 14:36:40;;;;;;;;;;;;;;;7.61;100.00;97953.28;4277208;33;19953;-76
2023/01/05 14:39:26;;;;;;;;;;;;;;;7.69;100.00;97924.38;4287002;33;19942;-76
2023/01/05 14:41:58;;;;;;;;;;;;;;;7.58;100.00;97927.00;4291012;33;19941;-76
2023/01/05 14:44:34;;;;;;;;;;;;;;;7.67;100.00;97953.31;4292302;33;19949;-75
2023/01/05 14:47:00;;;;;;;;;;;;;;;7.77;100.00;97945.31;4287926;33;20042;-76
2023/01/05 14:49:42;;;;;;;;;;;;;;;7.72;100.00;97931.91;4284784;33;19984;-75
2023/01/05 14:52:27;;;;;;;;;;;;;;;7.81;100.00;97975.91;4293465;33;19941;-76
2023/01/05 14:54:53;;;;;;;;;;;;;;;7.38;100.00;97934.87;4290829;33;19941;-74
2023/01/05 14:57:25;;;;;;;;;;;;;;;7.62;100.00;97960.22;4294389;33;20017;-75
2023/01/05 15:00:15;;;;;;;;;;;;;;;7.71;100.00;97957.09;4295665;33;19967;-76
2023/01/05 15:03:05;;;;;;;;;;;;;;;7.44;100.00;97958.75;4281872;33;19946;-75
2023/01/05 15:05:31;;;;;;;;;;;;;;;7.95;100.00;97952.97;4287538;33;20375;-76
2023/01/05 15:08:19;;;;;;;;;;;;;;;8.00;100.00;97955.66;4296619;33;19979;-76
2023/01/05 15:10:59;;;;;;;;;;;;;;;7.79;100.00;97964.66;4295764;33;19957;-76
2023/01/05 15:14:30;;;;;;;;;;;;;;;7.68;100.00;97992.44;4297065;33;19948;-76
2023/01/05 15:16:43;;;;;;;;;;;;;;;7.46;100.00;97971.91;4296664;33;20361;-76
2023/01/05 15:19:28;;;;;;;;;;;;;;;7.51;100.00;97969.25;4296648;33;20002;-74
2023/01/05 15:22:00;;;;;;;;;;;;;;;7.49;100.00;97954.53;4296079;33;19982;-74
2023/01/05 15:24:33;;;;;;;;;;;;;;;7.37;100.00;97946.62;4265319;33;19981;-75
2023/01/05 15:26:59;;;;;;;;;;;;;;;7.63;100.00;97975.25;4265429;33;19999;-75
2023/01/05 15:29:34;;;;;;;;;;;;;;;7.64;100.00;97995.63;4249477;33;19960;-73
2023/01/05 15:32:19;;;;;;;;;;;;;;;7.47;100.00;97978.88;4251794;33;19950;-74
2023/01/05 15:34:46;;;;;;;;;;;;;;;7.30;100.00;98010.31;4250990;33;20698;-74
2023/01/05 15:37:24;;;;;;;;;;;;;;;7.34;100.00;97973.91;4249692;33;19938;-73
2023/01/05 15:39:52;;;;;;;;;;;;;;;7.52;100.00;97976.25;4241337;33;19942;-75
2023/01/05 15:42:18;;;;;;;;;;;;;;;7.41;100.00;98006.69;4250129;33;20320;-75
2023/01/05 15:44:45;;;;;;;;;;;;;;;7.48;100.00;98001.91;4250643;33;19983;-73
2023/01/05 15:47:11;;;;;;;;;;;;;;;7.45;100.00;98022.00;4248341;33;20373;-73